カーブル の空港の天気 - METARとTAF

カーブル国際空港 ( OAKB / KBL ) - アフガニスタン カーブル
飛行場実況気象(Metar)
観測時間01/18 13:20 AFT (01/18 08:50 UTC)
風向・風速北北西 3m/s
視程8000m
天気現象
なし
気温9℃
湿度34%
気圧1024hPa
METAROAKB 180850Z 34006KT 320V060 8000 NSC 09/M06 Q1024 NOSIG RMK A3024 BLU BLU
過去の天気等 Google飛行場航空写真 Wunderground天気予報

過去48時間のMETAR

飛行場予報(TAF)
発表時間: 1/18 09:35 AFT (1/18 05:05 UTC)
予報対象時間: 18日10時 AFT ~ 19日10時 AFT
風向・風速不定 1m/s
視程3,500m
天気現象煙霧
なし
18日9時 AFT ~ 18日11時 AFT に一時的に
視程1,000m
天気現象
18日11時 AFT ~ 18日12時 AFT に徐々に
視程8,000m
天気現象運行に影響にある天気現象が終了
18日19時 AFT ~ 18日21時 AFT に徐々に
視程2,500m
天気現象
19日5時 AFT ~ 19日7時 AFT に一時的に
視程1,400m
19日7時 AFT ~ 19日8時 AFT に徐々に
視程7,000m
天気現象運行に影響にある天気現象が終了
TAF OAKB 180505Z 1806/1906 VRB02KT 3500 HZ NSC
TEMPO 1805/1807 1000 FU
BECMG 1807/1808 8000 NSW
BECMG 1815/1817 2500 FU
TEMPO 1901/1903 1400
BECMG 1903/1904 7000 NSW